Time,TemperatureF,DewpointF,PressureIn,WindDirection,WindDirectionDegrees,WindSpeedMPH,WindSpeedGustMPH,Humidity,HourlyPrecipIn,Conditions,Clouds,dailyrainin,SoftwareType,DateUTC
2013-04-03 00:00:00,51.6,-7.9,29.53,North,353,9.2,9.2,8,0.00,OVC,,0.00,WeatherDisplay:10.37,2013-04-03 05:00:00,
2013-04-03 00:05:00,51.6,-7.9,29.53,North,353,9.2,9.2,8,0.00,OVC,,0.00,WeatherDisplay:10.37,2013-04-03 05:05:00,
2013-04-03 00:34:00,51.6,-7.9,29.53,North,353,9.2,9.2,8,0.00,OVC,,0.00,WeatherDisplay:10.37,2013-04-03 05:34:00,
2013-04-03 01:00:00,51.6,-7.9,29.53,North,353,9.2,9.2,8,0.00,OVC,,0.00,WeatherDisplay:10.37,2013-04-03 06:00:00,
2013-04-03 01:35:00,51.6,-7.9,29.53,North,353,9.2,9.2,8,0.00,OVC,,0.00,WeatherDisplay:10.37,2013-04-03 06:35:00,
2013-04-03 02:45:00,51.6,-7.9,29.53,North,353,9.2,9.2,8,0.00,OVC,,0.00,WeatherDisplay:10.37,2013-04-03 07:45:00,
2013-04-03 04:25:00,51.6,-7.9,29.53,North,353,9.2,9.2,8,0.00,OVC,,0.00,WeatherDisplay:10.37,2013-04-03 09:25:00,
2013-04-03 05:10:00,51.6,-7.9,29.53,North,353,9.2,9.2,8,0.00,OVC,,0.00,WeatherDisplay:10.37,2013-04-03 10:10:00,
2013-04-03 06:14:00,51.6,-7.9,29.53,North,353,9.2,9.2,8,0.00,OVC,,0.00,WeatherDisplay:10.37,2013-04-03 11:14:00,
2013-04-03 07:05:00,51.6,-7.9,29.53,North,353,9.2,9.2,8,0.00,OVC,,0.00,WeatherDisplay:10.37,2013-04-03 12:05:00,
2013-04-03 07:30:00,51.6,-7.9,29.53,North,353,9.2,9.2,8,0.00,OVC,,0.00,WeatherDisplay:10.37,2013-04-03 12:30:00,
2013-04-03 07:45:00,44.8,-10.8,30.01,North,350,6.0,12.0,9,0.00,-RA,,0.09,WeatherDisplay:10.37,2013-04-03 12:45:00,
2013-04-03 07:50:00,44.8,-10.8,30.01,North,351,7.0,9.0,9,0.00,OVC,,0.09,WeatherDisplay:10.37,2013-04-03 12:50:00,
2013-04-03 07:55:00,44.8,-10.8,30.01,NNW,345,8.0,10.0,9,0.00,OVC,,0.09,WeatherDisplay:10.37,2013-04-03 12:55:00,
2013-04-03 08:00:00,45.0,-10.6,30.01,North,353,10.4,10.4,9,0.01,OVC,,0.09,WeatherDisplay:10.37,2013-04-03 13:00:00,
2013-04-03 08:05:00,44.8,-10.8,30.01,NNW,341,7.0,8.0,9,0.00,OVC,,0.09,WeatherDisplay:10.37,2013-04-03 13:05:00,
2013-04-03 08:10:00,45.0,-10.6,30.01,NNW,348,8.1,8.1,9,0.01,OVC,,0.09,WeatherDisplay:10.37,2013-04-03 13:10:00,
2013-04-03 08:15:00,45.0,-10.6,30.01,North,0,8.1,8.1,9,0.01,OVC,,0.09,WeatherDisplay:10.37,2013-04-03 13:15:00,
2013-04-03 08:20:00,45.0,-10.6,30.01,NNW,341,5.0,10.0,9,0.00,OVC,,0.09,WeatherDisplay:10.37,2013-04-03 13:20:00,
2013-04-03 08:25:00,45.0,-10.6,30.04,North,353,5.8,5.8,9,0.00,OVC,,0.09,WeatherDisplay:10.37,2013-04-03 13:25:00,
2013-04-03 08:30:00,45.0,-10.6,30.04,North,351,7.0,10.0,9,0.00,OVC,,0.09,WeatherDisplay:10.37,2013-04-03 13:30:00,
2013-04-03 08:35:00,45.1,-10.5,30.04,North,354,5.0,8.0,9,0.00,OVC,,0.09,WeatherDisplay:10.37,2013-04-03 13:35:00,
2013-04-03 08:40:00,45.1,-10.5,30.04,NNW,334,5.8,7.2,9,0.00,OVC,,0.09,WeatherDisplay:10.37,2013-04-03 13:40:00,
2013-04-03 08:45:00,45.0,-10.6,30.04,North,358,5.0,8.0,9,0.00,OVC,,0.09,WeatherDisplay:10.37,2013-04-03 13:45:00,
2013-04-03 08:50:00,44.8,-10.8,30.04,North,6,6.0,9.0,9,0.00,OVC,,0.09,WeatherDisplay:10.37,2013-04-03 13:50:00,
2013-04-03 08:55:00,44.8,-10.7,30.04,North,359,5.0,8.0,9,0.00,OVC,,0.09,WeatherDisplay:10.37,2013-04-03 13:55:00,
2013-04-03 09:00:00,45.0,-10.6,30.04,North,352,6.0,8.0,9,0.00,OVC,,0.09,WeatherDisplay:10.37,2013-04-03 14:00:00,
2013-04-03 09:05:00,45.0,-10.6,30.04,NNW,347,6.0,10.0,9,0.00,OVC,,0.09,WeatherDisplay:10.37,2013-04-03 14:05:00,
2013-04-03 09:10:00,45.0,-10.6,30.04,North,357,8.1,8.1,9,0.00,OVC,,0.09,WeatherDisplay:10.37,2013-04-03 14:10:00,
2013-04-03 09:15:00,45.0,-10.6,30.04,North,349,7.0,10.0,9,0.00,OVC,,0.09,WeatherDisplay:10.37,2013-04-03 14:15:00,
2013-04-03 09:20:00,45.1,-10.5,30.04,NNW,347,6.0,11.0,9,0.00,OVC,,0.09,WeatherDisplay:10.37,2013-04-03 14:20:00,
2013-04-03 09:25:00,45.5,-10.2,30.04,NW,312,5.8,5.8,9,0.00,OVC,,0.09,WeatherDisplay:10.37,2013-04-03 14:25:00,
2013-04-03 09:30:00,45.5,-10.2,30.04,NNW,341,6.0,11.0,9,0.00,OVC,,0.09,WeatherDisplay:10.37,2013-04-03 14:30:00,
2013-04-03 09:35:00,45.5,-10.2,30.04,NNW,346,8.1,8.1,9,0.00,-DZ,,0.09,WeatherDisplay:10.37,2013-04-03 14:35:00,
2013-04-03 09:40:00,45.7,-10.1,30.04,NNW,343,5.8,5.8,9,0.00,-DZ,,0.09,WeatherDisplay:10.37,2013-04-03 14:40:00,
2013-04-03 09:45:00,45.5,-10.2,30.04,NNW,344,7.0,11.0,9,0.00,-DZ,,0.09,WeatherDisplay:10.37,2013-04-03 14:45:00,
2013-04-03 09:50:00,45.5,-10.2,30.04,NE,36,5.8,5.8,9,0.00,OVC,,0.09,WeatherDisplay:10.37,2013-04-03 14:50:00,
2013-04-03 09:55:00,45.7,-10.1,30.04,North,0,8.1,8.1,9,0.00,OVC,,0.09,WeatherDisplay:10.37,2013-04-03 14:55:00,
2013-04-03 10:00:00,45.9,-9.9,30.04,North,349,8.1,8.1,9,0.00,OVC,,0.09,WeatherDisplay:10.37,2013-04-03 15:00:00,
2013-04-03 10:05:00,45.9,-9.9,30.04,North,350,5.8,6.7,9,0.00,OVC,,0.09,WeatherDisplay:10.37,2013-04-03 15:05:00,
2013-04-03 10:10:00,45.9,-9.9,30.04,ENE,76,6.9,6.9,9,0.00,OVC,,0.09,WeatherDisplay:10.37,2013-04-03 15:10:00,
2013-04-03 10:15:00,45.9,-9.9,30.04,NNW,344,9.2,9.2,9,0.00,OVC,,0.09,WeatherDisplay:10.37,2013-04-03 15:15:00,
2013-04-03 10:20:00,46.0,-9.8,30.04,NNW,329,4.6,4.9,9,0.00,OVC,,0.09,WeatherDisplay:10.37,2013-04-03 15:20:00,
2013-04-03 10:25:00,46.2,-9.7,30.04,North,357,5.8,5.8,9,0.00,OVC,,0.09,WeatherDisplay:10.37,2013-04-03 15:25:00,
2013-04-03 10:30:00,46.4,-11.9,30.04,NNW,340,5.8,5.8,8,0.00,OVC,,0.09,WeatherDisplay:10.37,2013-04-03 15:30:00,
2013-04-03 10:35:00,46.8,-11.6,30.04,NE,46,5.8,5.8,8,0.00,OVC,,0.09,WeatherDisplay:10.37,2013-04-03 15:35:00,
2013-04-03 10:40:00,46.9,-11.5,30.07,North,4,5.8,5.8,8,0.00,OVC,,0.09,WeatherDisplay:10.37,2013-04-03 15:40:00,
2013-04-03 10:45:00,47.1,-11.3,30.07,NNW,346,5.8,5.8,8,0.00,OVC,,0.09,WeatherDisplay:10.37,2013-04-03 15:45:00,
2013-04-03 10:50:00,47.3,-11.2,30.07,NNW,343,4.0,4.0,8,0.00,OVC,,0.09,WeatherDisplay:10.37,2013-04-03 15:50:00,
2013-04-03 10:55:00,47.5,-11.1,30.07,NNW,346,8.1,8.1,8,0.00,OVC,,0.09,WeatherDisplay:10.37,2013-04-03 15:55:00,
2013-04-03 11:00:00,48.2,-10.5,30.07,NNW,329,5.8,5.8,8,0.00,OVC,,0.09,WeatherDisplay:10.37,2013-04-03 16:00:00,
2013-04-03 11:05:00,48.0,-10.7,30.07,NNW,337,5.8,5.8,8,0.00,OVC,,0.09,WeatherDisplay:10.37,2013-04-03 16:05:00,
2013-04-03 11:10:00,48.0,-10.7,30.04,North,353,4.6,4.6,8,0.00,OVC,,0.09,WeatherDisplay:10.37,2013-04-03 16:10:00,
2013-04-03 11:15:00,47.8,-10.8,30.04,NNW,330,4.6,4.6,8,0.00,OVC,,0.09,WeatherDisplay:10.37,2013-04-03 16:15:00,
2013-04-03 11:20:00,47.8,-10.8,30.04,North,1,5.8,5.8,8,0.00,OVC,,0.09,WeatherDisplay:10.37,2013-04-03 16:20:00,
2013-04-03 11:25:00,47.7,-10.9,30.07,NNW,335,8.1,8.1,8,0.00,OVC,,0.09,WeatherDisplay:10.37,2013-04-03 16:25:00,
2013-04-03 11:31:00,47.8,-10.8,30.07,North,350,6.3,6.3,8,0.00,OVC,,0.09,WeatherDisplay:10.37,2013-04-03 16:31:00,
2013-04-03 11:37:00,47.8,-10.8,30.07,NNW,333,8.1,8.1,8,0.00,OVC,,0.09,WeatherDisplay:10.37,2013-04-03 16:37:00,
2013-04-03 11:42:00,47.8,-10.8,30.07,NNW,335,5.8,5.8,8,0.00,OVC,,0.09,WeatherDisplay:10.37,2013-04-03 16:42:00,
2013-04-03 11:47:00,47.8,-10.8,30.07,NNW,339,3.5,3.5,8,0.00,OVC,,0.09,WeatherDisplay:10.37,2013-04-03 16:47:00,
2013-04-03 11:52:00,48.0,-10.7,30.07,NNW,345,5.8,5.8,8,0.00,OVC,,0.09,WeatherDisplay:10.37,2013-04-03 16:52:00,
2013-04-03 11:57:00,47.8,-10.8,30.07,NNW,346,8.1,8.1,8,0.00,OVC,,0.09,WeatherDisplay:10.37,2013-04-03 16:57:00,
2013-04-03 12:02:00,47.8,-10.8,30.07,NNW,335,5.8,5.8,8,0.00,OVC,,0.09,WeatherDisplay:10.37,2013-04-03 17:02:00,
2013-04-03 12:07:00,48.0,-10.7,30.07,North,353,4.6,4.6,8,0.00,OVC,,0.09,WeatherDisplay:10.37,2013-04-03 17:07:00,
2013-04-03 12:12:00,48.2,-10.5,30.07,NNW,332,5.8,5.8,8,0.00,OVC,,0.09,WeatherDisplay:10.37,2013-04-03 17:12:00,
2013-04-03 12:17:00,48.4,-10.4,30.07,NNW,334,3.5,4.5,8,0.00,OVC,,0.09,WeatherDisplay:10.37,2013-04-03 17:17:00,
2013-04-03 12:22:00,48.4,-10.4,30.07,NNW,339,5.8,5.8,8,0.00,OVC,,0.09,WeatherDisplay:10.37,2013-04-03 17:22:00,
2013-04-03 12:27:00,48.6,-10.3,30.07,NNE,16,2.3,0.0,8,0.00,OVC,,0.09,WeatherDisplay:10.37,2013-04-03 17:27:00,
2013-04-03 12:32:00,48.7,-10.1,30.07,NNW,343,2.7,0.0,8,0.00,OVC,,0.09,WeatherDisplay:10.37,2013-04-03 17:32:00,
2013-04-03 12:37:00,48.4,-10.4,30.07,NNW,344,2.3,0.0,8,0.00,OVC,,0.09,WeatherDisplay:10.37,2013-04-03 17:37:00,
2013-04-03 12:42:00,48.2,-10.5,30.07,NNW,348,3.5,0.0,8,0.00,OVC,,0.09,WeatherDisplay:10.37,2013-04-03 17:42:00,
2013-04-03 12:47:00,48.2,-10.5,30.07,NNW,334,2.3,0.0,8,0.00,OVC,,0.09,WeatherDisplay:10.37,2013-04-03 17:47:00,
2013-04-03 12:52:00,48.4,-10.4,30.07,NNW,346,3.5,3.5,8,0.00,OVC,,0.09,WeatherDisplay:10.37,2013-04-03 17:52:00,
2013-04-03 12:57:00,48.4,-10.4,30.07,NNW,346,2.3,0.0,8,0.00,OVC,,0.09,WeatherDisplay:10.37,2013-04-03 17:57:00,
2013-04-03 13:03:00,48.6,-10.3,30.07,NNW,340,3.5,0.0,8,0.00,OVC,,0.09,WeatherDisplay:10.37,2013-04-03 18:03:00,
2013-04-03 13:05:00,48.6,-10.3,30.07,North,353,0.0,0.0,8,0.00,RA,,0.09,WeatherDisplay:10.37,2013-04-03 18:05:00,
2013-04-03 13:07:00,48.6,-10.3,30.07,North,353,0.0,0.0,8,0.00,RA,,0.09,WeatherDisplay:10.37,2013-04-03 18:07:00,
2013-04-03 13:12:00,48.6,-10.3,30.07,North,353,0.0,0.0,8,0.00,RA,,0.09,WeatherDisplay:10.37,2013-04-03 18:12:00,
2013-04-03 13:17:00,48.9,-10.0,30.07,North,353,0.0,2.2,8,0.00,RA,,0.09,WeatherDisplay:10.37,2013-04-03 18:17:00,
2013-04-03 13:23:00,48.9,-10.0,30.07,North,353,0.0,0.0,8,0.00,RA,,0.09,WeatherDisplay:10.37,2013-04-03 18:23:00,
2013-04-03 13:28:00,48.9,-10.0,30.07,NNW,343,2.3,0.0,8,0.00,OVC,,0.09,WeatherDisplay:10.37,2013-04-03 18:28:00,
2013-04-03 13:33:00,48.9,-10.0,30.07,North,0,0.0,0.0,8,0.00,OVC,,0.09,WeatherDisplay:10.37,2013-04-03 18:33:00,
2013-04-03 13:38:00,49.5,-9.6,30.07,North,353,3.5,0.0,8,0.00,OVC,,0.09,WeatherDisplay:10.37,2013-04-03 18:38:00,
2013-04-03 13:43:00,49.8,-9.3,30.07,North,0,2.3,0.0,8,0.00,OVC,,0.09,WeatherDisplay:10.37,2013-04-03 18:43:00,
2013-04-03 13:48:00,50.0,-9.2,30.07,NNW,338,3.5,3.5,8,0.00,OVC,,0.09,WeatherDisplay:10.37,2013-04-03 18:48:00,
2013-04-03 13:53:00,50.4,-8.9,30.07,North,357,3.5,0.0,8,0.00,OVC,,0.09,WeatherDisplay:10.37,2013-04-03 18:53:00,
2013-04-03 13:58:00,50.2,-9.0,30.07,NNW,346,3.5,3.5,8,0.00,OVC,,0.09,WeatherDisplay:10.37,2013-04-03 18:58:00,
2013-04-03 14:04:00,50.4,48.1,30.07,NNW,343,3.5,3.5,92,0.00,OVC,,0.09,WeatherDisplay:10.37,2013-04-03 19:04:00,
2013-04-03 14:09:00,50.2,47.9,30.07,NNE,23,8.1,8.1,92,0.00,OVC,,0.09,WeatherDisplay:10.37,2013-04-03 19:09:00,
2013-04-03 14:14:00,50.4,47.8,30.07,NNW,345,3.5,3.6,91,0.00,OVC,,0.09,WeatherDisplay:10.37,2013-04-03 19:14:00,
2013-04-03 14:20:00,50.7,48.2,30.07,North,355,1.0,4.0,91,0.00,OVC,,0.09,WeatherDisplay:10.37,2013-04-03 19:20:00,
2013-04-03 14:25:00,50.9,48.4,30.07,North,1,5.0,6.0,91,0.00,OVC,,0.09,WeatherDisplay:10.37,2013-04-03 19:25:00,
2013-04-03 14:30:00,51.1,48.0,30.07,NNW,332,5.8,5.8,89,0.00,OVC,,0.09,WeatherDisplay:10.37,2013-04-03 19:30:00,
2013-04-03 14:35:00,51.3,48.1,30.07,North,357,5.8,5.8,89,0.00,OVC,,0.09,WeatherDisplay:10.37,2013-04-03 19:35:00,
2013-04-03 14:40:00,51.3,48.1,30.07,North,355,3.0,6.0,89,0.00,OVC,,0.09,WeatherDisplay:10.37,2013-04-03 19:40:00,
2013-04-03 14:45:00,51.6,48.5,30.07,North,10,5.8,5.8,89,0.00,OVC,,0.09,WeatherDisplay:10.37,2013-04-03 19:45:00,
2013-04-03 14:50:00,51.8,48.7,30.07,North,356,5.0,6.0,89,0.00,OVC,,0.09,WeatherDisplay:10.37,2013-04-03 19:50:00,
2013-04-03 14:55:00,51.8,48.4,30.04,NNE,21,4.6,4.6,88,0.00,OVC,,0.09,WeatherDisplay:10.37,2013-04-03 19:55:00,
2013-04-03 15:00:00,52.0,48.2,30.04,NNW,342,3.5,4.0,87,0.00,OVC,,0.09,WeatherDisplay:10.37,2013-04-03 20:00:00,
2013-04-03 15:05:00,52.2,48.1,30.04,North,0,3.5,6.7,86,0.00,OVC,,0.09,WeatherDisplay:10.37,2013-04-03 20:05:00,
2013-04-03 15:10:00,52.2,47.8,30.04,NNW,338,5.8,7.2,85,0.00,OVC,,0.09,WeatherDisplay:10.37,2013-04-03 20:10:00,
2013-04-03 15:15:00,52.2,47.5,30.04,North,0,8.1,8.1,84,0.00,OVC,,0.09,WeatherDisplay:10.37,2013-04-03 20:15:00,
2013-04-03 15:20:00,52.2,47.2,30.04,NNW,331,8.1,8.1,83,0.00,OVC,,0.09,WeatherDisplay:10.37,2013-04-03 20:20:00,
2013-04-03 15:25:00,52.5,47.5,30.04,NNW,345,5.8,5.8,83,0.00,OVC,,0.09,WeatherDisplay:10.37,2013-04-03 20:25:00,
2013-04-03 15:30:00,52.9,48.2,30.04,NW,315,6.9,6.9,84,0.00,OVC,,0.09,WeatherDisplay:10.37,2013-04-03 20:30:00,
2013-04-03 15:35:00,53.1,48.0,30.04,North,0,6.9,6.9,83,0.00,OVC,,0.09,WeatherDisplay:10.37,2013-04-03 20:35:00,
2013-04-03 15:40:00,53.1,47.7,30.01,NNE,12,8.1,8.1,82,0.00,OVC,,0.09,WeatherDisplay:10.37,2013-04-03 20:40:00,
2013-04-03 15:45:00,53.1,47.7,30.01,NW,325,7.6,7.6,82,0.00,OVC,,0.09,WeatherDisplay:10.37,2013-04-03 20:45:00,
2013-04-03 15:50:00,53.1,47.7,30.01,NNW,344,5.8,5.8,82,0.00,OVC,,0.09,WeatherDisplay:10.37,2013-04-03 20:50:00,
2013-04-03 15:56:00,53.2,47.9,30.01,North,1,8.1,8.1,82,0.00,OVC,,0.09,WeatherDisplay:10.37,2013-04-03 20:56:00,
2013-04-03 16:01:00,53.4,48.1,30.01,North,353,5.8,5.8,82,0.00,OVC,,0.09,WeatherDisplay:10.37,2013-04-03 21:01:00,
2013-04-03 16:06:00,53.2,47.2,30.01,NNW,328,5.8,5.8,80,0.00,OVC,,0.09,WeatherDisplay:10.37,2013-04-03 21:06:00,
2013-04-03 16:11:00,53.1,47.4,30.04,NNW,332,8.1,8.1,81,0.00,OVC,,0.09,WeatherDisplay:10.37,2013-04-03 21:11:00,
2013-04-03 16:16:00,53.2,47.9,30.04,North,357,8.1,8.1,82,0.00,OVC,,0.09,WeatherDisplay:10.37,2013-04-03 21:16:00,
2013-04-03 16:21:00,53.2,47.9,30.04,NNW,345,5.8,5.8,82,0.00,OVC,,0.09,WeatherDisplay:10.37,2013-04-03 21:21:00,
2013-04-03 16:27:00,53.2,48.2,30.04,North,357,5.8,5.8,83,0.00,OVC,,0.09,WeatherDisplay:10.37,2013-04-03 21:27:00,
2013-04-03 16:32:00,53.2,48.2,30.04,North,5,5.8,5.8,83,0.00,OVC,,0.09,WeatherDisplay:10.37,2013-04-03 21:32:00,
2013-04-03 16:37:00,53.1,48.4,30.04,NNW,343,3.5,4.0,84,0.00,OVC,,0.09,WeatherDisplay:10.37,2013-04-03 21:37:00,
2013-04-03 16:42:00,53.1,48.0,30.04,North,10,5.8,5.8,83,0.00,OVC,,0.09,WeatherDisplay:10.37,2013-04-03 21:42:00,
2013-04-03 16:47:00,52.9,48.2,30.04,NNW,338,5.8,5.8,84,0.00,OVC,,0.09,WeatherDisplay:10.37,2013-04-03 21:47:00,
2013-04-03 16:52:00,52.7,48.0,30.04,NNW,342,5.8,5.8,84,0.00,OVC,,0.09,WeatherDisplay:10.37,2013-04-03 21:52:00,
2013-04-03 16:57:00,52.5,46.9,30.04,North,0,4.6,4.6,81,0.00,OVC,,0.09,WeatherDisplay:10.37,2013-04-03 21:57:00,
2013-04-03 17:02:00,52.5,47.2,30.04,NNW,348,3.5,3.6,82,0.00,OVC,,0.09,WeatherDisplay:10.37,2013-04-03 22:02:00,
2013-04-03 17:07:00,52.5,47.2,30.04,NNE,27,4.6,4.6,82,0.00,OVC,,0.09,WeatherDisplay:10.37,2013-04-03 22:07:00,
2013-04-03 17:12:00,52.2,46.8,30.04,North,357,4.0,4.0,82,0.00,OVC,,0.09,WeatherDisplay:10.37,2013-04-03 22:12:00,
2013-04-03 17:17:00,52.2,46.2,30.04,North,0,3.5,4.5,80,0.00,OVC,,0.09,WeatherDisplay:10.37,2013-04-03 22:17:00,
2013-04-03 17:22:00,52.0,46.3,30.04,NNE,24,4.6,4.6,81,0.00,OVC,,0.09,WeatherDisplay:10.37,2013-04-03 22:22:00,
2013-04-03 17:27:00,51.8,46.2,30.04,North,349,3.5,4.5,81,0.00,OVC,,0.09,WeatherDisplay:10.37,2013-04-03 22:27:00,
2013-04-03 17:32:00,51.8,45.8,30.04,North,357,5.8,5.8,80,0.00,OVC,,0.09,WeatherDisplay:10.37,2013-04-03 22:32:00,
2013-04-03 17:37:00,51.8,45.8,30.04,North,1,5.8,5.8,80,0.00,OVC,,0.09,WeatherDisplay:10.37,2013-04-03 22:37:00,
2013-04-03 17:42:00,51.6,45.3,30.04,ENE,57,5.8,5.8,79,0.00,OVC,,0.09,WeatherDisplay:10.37,2013-04-03 22:42:00,
2013-04-03 17:47:00,51.6,45.3,30.04,North,6,3.5,3.6,79,0.00,OVC,,0.09,WeatherDisplay:10.37,2013-04-03 22:47:00,
2013-04-03 17:52:00,51.4,45.1,30.04,North,5,5.8,5.8,79,0.00,OVC,,0.09,WeatherDisplay:10.37,2013-04-03 22:52:00,
2013-04-03 17:57:00,51.3,44.6,30.04,NNW,338,5.8,5.8,78,0.00,OVC,,0.09,WeatherDisplay:10.37,2013-04-03 22:57:00,
2013-04-03 18:02:00,51.1,44.5,30.04,NNE,22,6.9,6.9,78,0.00,OVC,,0.09,WeatherDisplay:10.37,2013-04-03 23:02:00,
2013-04-03 18:07:00,51.1,44.5,30.04,North,0,5.8,5.8,78,0.00,OVC,,0.09,WeatherDisplay:10.37,2013-04-03 23:07:00,
2013-04-03 18:12:00,50.9,44.6,30.04,NNW,345,5.8,5.8,79,0.00,OVC,,0.09,WeatherDisplay:10.37,2013-04-03 23:12:00,
2013-04-03 18:17:00,50.7,44.4,30.04,North,357,8.1,8.1,79,0.00,OVC,,0.09,WeatherDisplay:10.37,2013-04-03 23:17:00,
2013-04-03 18:22:00,50.7,44.8,30.04,North,353,3.5,4.5,80,0.00,OVC,,0.09,WeatherDisplay:10.37,2013-04-03 23:22:00,
2013-04-03 18:27:00,50.5,44.3,30.04,North,0,5.8,5.8,79,0.00,OVC,,0.09,WeatherDisplay:10.37,2013-04-03 23:27:00,
2013-04-03 18:32:00,50.5,44.3,30.04,NNE,22,5.8,5.8,79,0.00,OVC,,0.09,WeatherDisplay:10.37,2013-04-03 23:32:00,
2013-04-03 18:38:00,50.4,44.4,30.07,NNW,336,5.8,5.8,80,0.00,OVC,,0.09,WeatherDisplay:10.37,2013-04-03 23:38:00,
2013-04-03 18:43:00,50.2,44.6,30.07,NNW,335,5.8,5.8,81,0.00,OVC,,0.09,WeatherDisplay:10.37,2013-04-03 23:43:00,
2013-04-03 18:48:00,49.8,44.5,30.07,North,353,6.9,6.9,82,0.00,OVC,,0.09,WeatherDisplay:10.37,2013-04-03 23:48:00,
2013-04-03 18:53:00,48.2,43.6,30.04,NNW,338,8.1,8.1,84,0.01,RA,,0.10,WeatherDisplay:10.37,2013-04-03 23:53:00,
2013-04-03 18:58:00,47.3,44.5,30.04,NNW,338,6.9,6.9,90,0.05,RA,,0.14,WeatherDisplay:10.37,2013-04-03 23:58:00,
2013-04-03 19:03:00,46.9,45.0,30.04,NNW,341,8.1,8.1,93,0.06,RA,,0.15,WeatherDisplay:10.37,2013-04-04 00:03:00,
2013-04-03 19:08:00,46.9,45.3,30.01,NNW,344,5.8,5.8,94,0.07,RA,,0.16,WeatherDisplay:10.37,2013-04-04 00:08:00,
2013-04-03 19:13:00,46.9,45.6,30.01,North,353,5.8,5.8,95,0.07,RA,,0.16,WeatherDisplay:10.37,2013-04-04 00:13:00,
2013-04-03 19:18:00,46.9,45.9,30.01,NNW,331,4.6,4.9,96,0.07,OVC,,0.16,WeatherDisplay:10.37,2013-04-04 00:18:00,
2013-04-03 19:23:00,46.8,46.0,30.01,NNW,328,5.8,5.8,97,0.09,RA,,0.18,WeatherDisplay:10.37,2013-04-04 00:23:00,
2013-04-03 19:28:00,46.6,46.0,30.01,North,349,8.1,8.1,98,0.09,RA,,0.18,WeatherDisplay:10.37,2013-04-04 00:28:00,
2013-04-03 19:33:00,46.6,46.0,30.01,NW,320,5.8,5.8,98,0.09,OVC,,0.18,WeatherDisplay:10.37,2013-04-04 00:33:00,
2013-04-03 19:38:00,46.6,46.0,30.01,North,357,8.1,8.1,98,0.10,RA,,0.19,WeatherDisplay:10.37,2013-04-04 00:38:00,
2013-04-03 19:43:00,46.6,46.0,30.01,NNW,342,3.5,3.5,98,0.11,RA,,0.20,WeatherDisplay:10.37,2013-04-04 00:43:00,
2013-04-03 19:48:00,46.6,46.0,30.01,NNW,334,0.0,0.0,98,0.11,RA,,0.21,WeatherDisplay:10.37,2013-04-04 00:48:00,
2013-04-03 19:53:00,46.6,46.0,30.07,SW,234,2.3,2.3,98,0.12,RA,,0.22,WeatherDisplay:10.37,2013-04-04 00:53:00,
2013-04-03 19:58:00,46.4,45.9,30.07,SW,234,0.0,0.0,98,0.11,RA,,0.25,WeatherDisplay:10.37,2013-04-04 00:58:00,
2013-04-03 20:03:00,46.2,45.7,30.07,WNW,299,3.5,3.5,98,0.10,-RA,,0.28,WeatherDisplay:10.37,2013-04-04 01:03:00,
2013-04-03 20:08:00,46.2,45.7,30.04,North,353,3.5,3.5,98,0.14,-RA,,0.30,WeatherDisplay:10.37,2013-04-04 01:08:00,
2013-04-03 20:13:00,46.2,45.7,30.04,North,3,4.6,4.6,98,0.15,-RA,,0.31,WeatherDisplay:10.37,2013-04-04 01:13:00,
2013-04-03 20:18:00,46.2,45.7,30.04,NNW,338,8.1,8.1,98,0.16,-RA,,0.32,WeatherDisplay:10.37,2013-04-04 01:18:00,
2013-04-03 20:23:00,46.2,45.7,30.04,North,353,3.5,3.5,98,0.15,-RA,,0.33,WeatherDisplay:10.37,2013-04-04 01:23:00,
2013-04-03 20:28:00,46.0,45.5,30.04,North,353,5.8,5.8,98,0.15,-RA,,0.33,WeatherDisplay:10.37,2013-04-04 01:28:00,
2013-04-03 20:33:00,46.2,45.7,30.04,NNW,341,3.5,3.5,98,0.15,-RA,,0.33,WeatherDisplay:10.37,2013-04-04 01:33:00,
2013-04-03 20:38:00,46.2,45.7,30.04,North,350,3.5,4.5,98,0.15,-RA,,0.34,WeatherDisplay:10.37,2013-04-04 01:38:00,
2013-04-03 20:43:00,46.0,45.5,30.04,NNW,329,5.8,5.8,98,0.15,-RA,,0.35,WeatherDisplay:10.37,2013-04-04 01:43:00,
2013-04-03 20:48:00,46.0,45.5,30.04,North,350,2.3,0.0,98,0.16,-RA,,0.36,WeatherDisplay:10.37,2013-04-04 01:48:00,
2013-04-03 20:53:00,45.9,45.3,30.07,North,350,2.3,0.0,98,0.15,-RA,,0.37,WeatherDisplay:10.37,2013-04-04 01:53:00,
2013-04-03 20:58:00,45.9,45.3,30.07,NNW,342,3.5,3.5,98,0.13,-RA,,0.38,WeatherDisplay:10.37,2013-04-04 01:58:00,
2013-04-03 21:03:00,45.9,45.3,30.07,NNE,17,5.8,5.8,98,0.13,-RA,,0.38,WeatherDisplay:10.37,2013-04-04 02:03:00,
2013-04-03 21:08:00,45.9,45.3,30.07,NNE,30,3.5,3.5,98,0.08,-RA,,0.39,WeatherDisplay:10.37,2013-04-04 02:08:00,
2013-04-03 21:13:00,45.9,45.3,30.07,NNE,29,0.0,0.0,98,0.08,-RA,,0.39,WeatherDisplay:10.37,2013-04-04 02:13:00,
2013-04-03 21:18:00,45.9,45.3,30.07,North,353,3.5,3.6,98,0.08,RA,,0.40,WeatherDisplay:10.37,2013-04-04 02:18:00,
2013-04-03 21:23:00,45.7,45.1,30.10,North,0,0.0,0.0,98,0.07,RA,,0.40,WeatherDisplay:10.37,2013-04-04 02:23:00,
2013-04-03 21:28:00,45.7,45.1,30.10,North,0,2.3,0.0,98,0.07,OVC,,0.40,WeatherDisplay:10.37,2013-04-04 02:28:00,
2013-04-03 21:33:00,45.7,45.1,30.10,North,0,0.0,0.0,98,0.07,OVC,,0.40,WeatherDisplay:10.37,2013-04-04 02:33:00,
2013-04-03 21:38:00,45.7,45.1,30.10,North,0,2.3,0.0,98,0.06,OVC,,0.40,WeatherDisplay:10.37,2013-04-04 02:38:00,
2013-04-03 21:43:00,45.9,45.3,30.10,North,0,2.3,0.0,98,0.05,OVC,,0.40,WeatherDisplay:10.37,2013-04-04 02:43:00,
2013-04-03 21:48:00,45.7,45.1,30.10,North,0,0.0,0.0,98,0.04,-RA,,0.40,WeatherDisplay:10.37,2013-04-04 02:48:00,
2013-04-03 21:53:00,45.9,45.3,30.10,North,0,0.0,0.0,98,0.03,-RA,,0.40,WeatherDisplay:10.37,2013-04-04 02:53:00,
2013-04-03 21:59:00,45.9,45.3,30.10,North,0,0.0,0.0,98,0.02,-RA,,0.40,WeatherDisplay:10.37,2013-04-04 02:59:00,
2013-04-03 22:04:00,45.9,45.3,30.10,North,0,2.3,0.0,98,0.02,OVC,,0.40,WeatherDisplay:10.37,2013-04-04 03:04:00,
2013-04-03 22:09:00,45.9,45.3,30.10,North,353,2.3,2.3,98,0.01,OVC,,0.40,WeatherDisplay:10.37,2013-04-04 03:09:00,
2013-04-03 22:14:00,45.9,45.3,30.10,North,0,2.3,0.0,98,0.01,OVC,,0.40,WeatherDisplay:10.37,2013-04-04 03:14:00,
2013-04-03 22:19:00,45.7,45.1,30.10,North,0,3.5,3.5,98,0.00,OVC,,0.40,WeatherDisplay:10.37,2013-04-04 03:19:00,
2013-04-03 22:24:00,45.7,45.1,30.10,NNW,338,3.5,3.5,98,0.00,OVC,,0.40,WeatherDisplay:10.37,2013-04-04 03:24:00,
2013-04-03 22:29:00,45.7,45.1,30.10,NNW,332,2.3,0.0,98,0.00,OVC,,0.40,WeatherDisplay:10.37,2013-04-04 03:29:00,
2013-04-03 22:35:00,45.7,45.1,30.10,NNW,334,0.0,3.0,98,0.00,-DZ,,0.40,WeatherDisplay:10.37,2013-04-04 03:35:00,
2013-04-03 22:40:00,45.7,45.1,30.13,NNW,333,0.0,0.0,98,0.01,-DZ,,0.41,WeatherDisplay:10.37,2013-04-04 03:40:00,
2013-04-03 22:45:00,45.5,45.0,30.13,NNW,333,0.0,0.0,98,0.01,-DZ,,0.41,WeatherDisplay:10.37,2013-04-04 03:45:00,
2013-04-03 22:50:00,45.5,45.0,30.13,NNW,333,2.3,0.0,98,0.01,RA,,0.41,WeatherDisplay:10.37,2013-04-04 03:50:00,
2013-04-03 22:55:00,45.5,45.0,30.10,NNW,331,3.5,3.5,98,0.01,OVC,,0.41,WeatherDisplay:10.37,2013-04-04 03:55:00,
2013-04-03 23:00:00,45.5,45.0,30.10,NNW,332,2.3,0.0,98,0.01,OVC,,0.41,WeatherDisplay:10.37,2013-04-04 04:00:00,
2013-04-03 23:05:00,45.7,45.1,30.10,NNW,333,0.0,0.0,98,0.01,OVC,,0.41,WeatherDisplay:10.37,2013-04-04 04:05:00,
2013-04-03 23:10:00,45.7,45.1,30.10,NNW,332,0.0,0.0,98,0.01,OVC,,0.41,WeatherDisplay:10.37,2013-04-04 04:10:00,
2013-04-03 23:15:00,45.5,45.0,30.10,NNW,332,0.0,0.0,98,0.01,OVC,,0.41,WeatherDisplay:10.37,2013-04-04 04:15:00,
2013-04-03 23:20:00,45.7,45.1,30.10,NNW,332,0.0,0.0,98,0.01,OVC,,0.41,WeatherDisplay:10.37,2013-04-04 04:20:00,
2013-04-03 23:25:00,45.7,45.1,30.10,NNW,332,2.3,0.0,98,0.01,OVC,,0.41,WeatherDisplay:10.37,2013-04-04 04:25:00,
2013-04-03 23:30:00,45.5,45.0,30.10,NNW,332,3.5,0.0,98,0.01,OVC,,0.41,WeatherDisplay:10.37,2013-04-04 04:30:00,
2013-04-03 23:35:00,45.5,45.0,30.10,NNW,332,0.0,0.0,98,0.01,OVC,,0.41,WeatherDisplay:10.37,2013-04-04 04:35:00,
2013-04-03 23:40:00,45.5,45.0,30.10,NNW,331,3.5,3.5,98,0.01,OVC,,0.41,WeatherDisplay:10.37,2013-04-04 04:40:00,
2013-04-03 23:45:00,45.3,44.8,30.10,NNW,331,2.3,0.0,98,0.01,RA,,0.42,WeatherDisplay:10.37,2013-04-04 04:45:00,
2013-04-03 23:50:00,45.3,44.8,30.10,NNW,331,3.5,3.5,98,0.01,-RA,,0.42,WeatherDisplay:10.37,2013-04-04 04:50:00,
2013-04-03 23:55:00,45.3,44.8,30.10,NNW,329,0.0,0.0,98,0.01,-RA,,0.42,WeatherDisplay:10.37,2013-04-04 04:55:00,